createdAt,value
2019-01-24T00:00:01.058Z,78.00
2019-01-24T00:02:29.788Z,78.80
2019-01-24T00:04:58.449Z,78.80
2019-01-24T00:07:27.123Z,78.40
2019-01-24T00:09:56.075Z,77.90
2019-01-24T00:14:53.074Z,78.00
2019-01-24T00:17:21.746Z,78.70
2019-01-24T00:19:50.398Z,78.70
2019-01-24T00:22:19.066Z,78.70
2019-01-24T00:24:47.788Z,78.60
2019-01-24T00:27:16.505Z,78.60
2019-01-24T00:29:45.167Z,78.20
2019-01-24T00:32:13.831Z,82.20
2019-01-24T00:37:10.765Z,76.90
2019-01-24T00:39:39.529Z,76.80
2019-01-24T00:42:08.218Z,77.60
2019-01-24T00:44:37.169Z,77.60
2019-01-24T00:47:05.813Z,77.30
2019-01-24T00:49:34.713Z,77.10
2019-01-24T00:52:03.466Z,77.30
2019-01-24T00:57:00.413Z,77.20
2019-01-24T00:59:29.092Z,77.40
2019-01-24T01:01:57.811Z,78.00
2019-01-24T01:04:29.772Z,78.20
2019-01-24T01:06:56.874Z,78.60
2019-01-24T01:09:25.613Z,78.20
2019-01-24T01:11:54.272Z,78.50
2019-01-24T01:14:22.951Z,77.50
2019-01-24T01:19:19.880Z,77.70
2019-01-24T01:21:48.528Z,78.60
2019-01-24T01:24:17.184Z,78.40
2019-01-24T01:26:46.280Z,79.40
2019-01-24T01:29:14.951Z,78.10
2019-01-24T01:31:43.634Z,77.30
2019-01-24T01:34:12.340Z,76.10
2019-01-24T01:39:10.201Z,75.30
2019-01-24T01:41:38.849Z,76.50
2019-01-24T01:44:07.494Z,76.90
2019-01-24T01:46:36.178Z,77.00
2019-01-24T01:49:05.109Z,77.20
2019-01-24T01:51:33.864Z,77.00
2019-01-24T01:54:02.535Z,77.30
2019-01-24T01:56:31.524Z,76.10
2019-01-24T02:01:28.521Z,76.10
2019-01-24T02:03:57.202Z,77.40
2019-01-24T02:06:25.911Z,77.70
2019-01-24T02:08:54.698Z,76.20
2019-01-24T02:11:23.624Z,76.90
2019-01-24T02:13:52.543Z,76.40
2019-01-24T02:16:21.392Z,75.30
2019-01-24T02:18:50.236Z,74.40
2019-01-24T02:23:47.174Z,74.40
2019-01-24T02:26:15.856Z,74.60
2019-01-24T02:28:44.533Z,75.30
2019-01-24T02:31:13.211Z,75.40
2019-01-24T02:33:41.863Z,76.40
2019-01-24T02:36:10.544Z,75.40
2019-01-24T02:38:39.204Z,74.10
2019-01-24T02:43:36.209Z,73.70
2019-01-24T02:46:04.919Z,73.90
2019-01-24T02:48:33.611Z,73.60
2019-01-24T02:51:02.289Z,73.40
2019-01-24T02:53:30.939Z,73.10
2019-01-24T02:55:59.591Z,73.00
2019-01-24T02:58:28.309Z,73.20
2019-01-24T03:00:56.961Z,72.70
2019-01-24T03:05:54.492Z,72.70
2019-01-24T03:08:23.297Z,73.40
2019-01-24T03:10:51.941Z,73.20
2019-01-24T03:13:20.654Z,73.30
2019-01-24T03:15:49.329Z,73.00
2019-01-24T03:18:17.996Z,73.00
2019-01-24T03:20:46.657Z,73.10
2019-01-24T03:23:15.441Z,71.30
2019-01-24T03:28:12.398Z,71.60
2019-01-24T03:30:41.086Z,72.30
2019-01-24T03:33:09.801Z,72.20
2019-01-24T03:35:38.661Z,71.40
2019-01-24T03:38:07.342Z,72.20
2019-01-24T03:40:35.998Z,70.80
2019-01-24T03:43:04.640Z,70.30
2019-01-24T03:48:01.663Z,70.40
2019-01-24T03:50:30.325Z,70.80
2019-01-24T03:52:58.983Z,71.50
2019-01-24T03:55:27.646Z,71.80
2019-01-24T03:57:56.346Z,72.10
2019-01-24T04:00:25.284Z,72.00
2019-01-24T04:02:54.144Z,72.10
2019-01-24T04:05:22.905Z,70.70
2019-01-24T04:10:20.983Z,69.70
2019-01-24T04:12:49.765Z,70.80
2019-01-24T04:15:23.365Z,71.00
2019-01-24T04:17:52.128Z,71.30
2019-01-24T04:20:21.155Z,71.50
2019-01-24T04:22:49.999Z,71.20
2019-01-24T04:25:18.669Z,71.80
2019-01-24T04:27:47.462Z,70.50
2019-01-24T04:32:45.532Z,70.50
2019-01-24T04:35:19.657Z,71.10
2019-01-24T04:37:45.014Z,72.00
2019-01-24T04:40:15.249Z,70.90
2019-01-24T04:42:43.996Z,70.70
2019-01-24T04:45:13.947Z,70.80
2019-01-24T04:47:42.639Z,71.00
2019-01-24T04:50:13.022Z,70.20
2019-01-24T04:55:11.515Z,70.00
2019-01-24T04:57:40.165Z,70.60
2019-01-24T05:00:17.530Z,70.10
2019-01-24T05:02:46.184Z,71.50
2019-01-24T05:05:14.923Z,70.70
2019-01-24T05:07:43.569Z,71.00
2019-01-24T05:10:12.222Z,72.00
2019-01-24T05:12:40.964Z,70.90
2019-01-24T05:15:09.615Z,70.60
2019-01-24T05:20:07.484Z,70.20
2019-01-24T05:22:36.138Z,71.10
2019-01-24T05:25:06.385Z,71.40
2019-01-24T05:27:35.033Z,71.10
2019-01-24T05:30:04.570Z,70.50
2019-01-24T05:32:33.292Z,70.30
2019-01-24T05:35:02.037Z,70.40
2019-01-24T05:37:30.809Z,90.90
2019-01-24T05:42:27.753Z,69.50
2019-01-24T05:44:56.407Z,69.90
2019-01-24T05:47:25.146Z,70.20
2019-01-24T05:49:53.800Z,70.40
2019-01-24T05:52:22.493Z,70.60
2019-01-24T05:54:51.164Z,70.70
2019-01-24T05:57:19.876Z,71.00
2019-01-24T06:02:16.862Z,70.90
2019-01-24T06:04:45.786Z,71.80
2019-01-24T06:07:14.448Z,72.00
2019-01-24T06:09:43.110Z,71.20
2019-01-24T06:12:11.772Z,71.90
2019-01-24T06:14:40.438Z,72.10
2019-01-24T06:17:09.087Z,71.70
2019-01-24T06:19:37.753Z,70.90
2019-01-24T06:24:34.760Z,70.70
2019-01-24T06:27:03.424Z,71.90
2019-01-24T06:29:32.117Z,72.00
2019-01-24T06:32:00.763Z,72.10
2019-01-24T06:34:29.423Z,71.90
2019-01-24T06:36:58.069Z,72.20
2019-01-24T06:39:26.716Z,72.00
2019-01-24T06:44:24.005Z,70.50
2019-01-24T06:46:52.954Z,71.60
2019-01-24T06:49:21.705Z,71.90
2019-01-24T06:51:50.460Z,72.30
2019-01-24T06:54:19.104Z,72.70
2019-01-24T06:56:48.008Z,73.50
2019-01-24T06:59:16.952Z,73.90
2019-01-24T07:01:45.669Z,73.80
2019-01-24T07:06:42.946Z,73.60
2019-01-24T07:09:11.615Z,74.50
2019-01-24T07:11:40.586Z,74.80
2019-01-24T07:14:09.440Z,74.00
2019-01-24T07:16:38.357Z,73.80
2019-01-24T07:19:07.119Z,73.50
2019-01-24T07:21:35.798Z,73.90
2019-01-24T07:24:04.499Z,72.40
2019-01-24T07:29:01.549Z,72.60
2019-01-24T07:31:30.212Z,73.10
2019-01-24T07:33:58.863Z,72.90
2019-01-24T07:36:27.773Z,73.20
2019-01-24T07:38:56.411Z,73.70
2019-01-24T07:41:25.068Z,73.70
2019-01-24T07:43:53.773Z,74.20
2019-01-24T07:46:22.429Z,72.60
2019-01-24T07:51:19.402Z,72.60
2019-01-24T07:53:48.052Z,73.00
2019-01-24T07:56:16.785Z,72.70
2019-01-24T07:58:45.753Z,72.90
2019-01-24T08:01:14.405Z,72.60
2019-01-24T08:03:43.056Z,72.20
2019-01-24T08:06:11.731Z,71.30
2019-01-24T08:11:08.914Z,70.60
2019-01-24T08:13:37.581Z,71.40
2019-01-24T08:16:06.238Z,71.50
2019-01-24T08:18:34.955Z,71.90
2019-01-24T08:21:03.620Z,71.80
2019-01-24T08:23:32.274Z,72.50
2019-01-24T08:26:01.022Z,72.30
2019-01-24T08:28:29.686Z,69.50
2019-01-24T08:33:26.624Z,68.50
2019-01-24T08:35:55.349Z,69.30
2019-01-24T08:38:24.011Z,69.00
2019-01-24T08:40:52.684Z,68.80
2019-01-24T08:43:21.345Z,69.00
2019-01-24T08:45:49.994Z,68.90
2019-01-24T08:48:18.670Z,68.20
2019-01-24T08:50:47.319Z,67.80
2019-01-24T08:55:44.686Z,67.60
2019-01-24T08:58:13.424Z,68.00
2019-01-24T09:00:42.086Z,68.30
2019-01-24T09:03:12.469Z,68.50
2019-01-24T09:05:41.214Z,68.70
2019-01-24T09:08:09.871Z,68.80
2019-01-24T09:10:39.343Z,67.40
2019-01-24T09:15:37.128Z,67.50
2019-01-24T09:18:06.412Z,67.30
2019-01-24T09:20:35.082Z,66.40
2019-01-24T09:23:03.805Z,65.10
2019-01-24T09:25:32.753Z,63.90
2019-01-24T09:28:01.428Z,62.90
2019-01-24T09:30:30.112Z,61.60
2019-01-24T09:32:58.870Z,60.20
2019-01-24T09:37:56.132Z,59.80
2019-01-24T09:40:24.806Z,60.70
2019-01-24T09:42:53.544Z,61.50
2019-01-24T09:45:24.021Z,62.20
2019-01-24T09:47:53.291Z,61.80
2019-01-24T09:50:22.907Z,63.30
2019-01-24T09:52:51.637Z,62.80
2019-01-24T09:55:20.360Z,59.80
2019-01-24T10:00:22.503Z,59.00
2019-01-24T10:02:51.140Z,59.50
2019-01-24T10:05:19.813Z,59.60
2019-01-24T10:07:48.469Z,59.70
2019-01-24T10:10:19.171Z,59.20
2019-01-24T10:12:47.815Z,58.30
2019-01-24T10:15:16.993Z,58.00
2019-01-24T10:17:45.654Z,57.40
2019-01-24T10:22:43.353Z,56.80
2019-01-24T10:25:26.288Z,57.10
2019-01-24T10:27:54.940Z,57.10
2019-01-24T10:30:23.733Z,57.00
2019-01-24T10:32:52.721Z,56.50
2019-01-24T10:35:21.391Z,56.20
2019-01-24T10:37:50.062Z,55.80
2019-01-24T10:40:20.930Z,55.80
2019-01-24T10:42:49.944Z,54.00
2019-01-24T10:47:47.277Z,54.10
2019-01-24T10:50:16.777Z,53.80
2019-01-24T10:52:45.438Z,53.90
2019-01-24T10:55:16.392Z,54.30
2019-01-24T10:57:45.235Z,54.80
2019-01-24T11:00:17.115Z,54.90
2019-01-24T11:02:45.782Z,54.10
2019-01-24T11:05:15.336Z,52.90
2019-01-24T11:10:13.029Z,53.70
2019-01-24T11:12:41.700Z,53.50
2019-01-24T11:15:13.120Z,52.80
2019-01-24T11:17:41.806Z,52.60
2019-01-24T11:20:12.043Z,52.90
2019-01-24T11:22:40.726Z,52.70
2019-01-24T11:25:12.102Z,53.30
2019-01-24T11:27:40.754Z,52.00
2019-01-24T11:32:38.489Z,53.50
2019-01-24T11:35:09.844Z,53.70
2019-01-24T11:37:38.492Z,53.40
2019-01-24T11:40:09.222Z,52.80
2019-01-24T11:42:37.873Z,52.30
2019-01-24T11:45:08.242Z,52.20
2019-01-24T11:47:36.957Z,52.20
2019-01-24T11:50:08.065Z,51.90
2019-01-24T11:55:05.878Z,50.20
2019-01-24T11:57:34.608Z,50.90
2019-01-24T12:00:03.361Z,51.30
2019-01-24T12:02:32.021Z,51.30
2019-01-24T12:05:00.757Z,51.80
2019-01-24T12:07:29.429Z,51.40
2019-01-24T12:09:58.094Z,52.10
2019-01-24T12:12:26.808Z,51.80
2019-01-24T12:17:24.808Z,51.70
2019-01-24T12:19:54.135Z,52.00
2019-01-24T12:22:22.792Z,52.40
2019-01-24T12:24:51.458Z,52.20
2019-01-24T12:27:20.387Z,51.90
2019-01-24T12:29:49.040Z,52.40
2019-01-24T12:32:17.785Z,52.40
2019-01-24T12:34:46.428Z,70.30
2019-01-24T12:39:43.375Z,51.50
2019-01-24T12:42:12.367Z,51.70
2019-01-24T12:44:41.029Z,51.80
2019-01-24T12:47:09.703Z,51.50
2019-01-24T12:49:38.719Z,51.50
2019-01-24T12:52:07.365Z,51.50
2019-01-24T12:54:36.026Z,51.80
2019-01-24T12:57:04.929Z,51.00
2019-01-24T13:02:01.964Z,50.80
2019-01-24T13:04:30.625Z,51.50
2019-01-24T13:06:59.282Z,51.90
2019-01-24T13:09:28.026Z,52.00
2019-01-24T13:11:56.687Z,51.90
2019-01-24T13:14:25.336Z,51.80
2019-01-24T13:16:54.244Z,51.50
2019-01-24T13:21:51.185Z,51.60
2019-01-24T13:24:19.941Z,52.60
2019-01-24T13:26:48.610Z,52.60
2019-01-24T13:29:17.276Z,52.50
2019-01-24T13:31:45.928Z,52.60
2019-01-24T13:34:14.592Z,52.60
2019-01-24T13:36:43.643Z,52.40
2019-01-24T13:39:12.356Z,52.60
2019-01-24T13:44:11.081Z,52.50
2019-01-24T13:46:40.638Z,53.20
2019-01-24T13:49:09.347Z,53.30
2019-01-24T13:51:38.005Z,53.00
2019-01-24T13:54:06.679Z,53.20
2019-01-24T13:56:35.330Z,53.20
2019-01-24T13:59:03.977Z,53.70
2019-01-24T14:01:32.680Z,52.40
2019-01-24T14:06:36.273Z,52.10
2019-01-24T14:09:08.710Z,52.80
2019-01-24T14:11:37.448Z,53.30
2019-01-24T14:14:06.488Z,53.30
2019-01-24T14:16:35.153Z,53.40
2019-01-24T14:19:03.818Z,54.00
2019-01-24T14:21:32.481Z,53.80
2019-01-24T14:24:01.141Z,56.80
2019-01-24T14:28:58.098Z,52.80
2019-01-24T14:31:26.745Z,53.60
2019-01-24T14:33:55.406Z,53.40
2019-01-24T14:36:25.467Z,53.10
2019-01-24T14:38:55.093Z,53.60
2019-01-24T14:41:23.741Z,53.00
2019-01-24T14:43:52.407Z,53.20
2019-01-24T14:46:21.586Z,53.00
2019-01-24T14:51:18.553Z,53.10
2019-01-24T14:53:47.214Z,53.50
2019-01-24T14:56:15.963Z,53.00
2019-01-24T14:58:44.624Z,53.50
2019-01-24T15:01:16.134Z,53.30
2019-01-24T15:03:44.788Z,53.10
2019-01-24T15:06:13.462Z,53.50
2019-01-24T15:11:10.397Z,53.80
2019-01-24T15:13:39.057Z,54.50
2019-01-24T15:16:07.720Z,54.60
2019-01-24T15:18:36.662Z,54.60
2019-01-24T15:21:05.342Z,54.30
2019-01-24T15:23:33.998Z,54.60
2019-01-24T15:26:02.672Z,54.30
2019-01-24T15:28:31.319Z,55.90
2019-01-24T15:33:28.445Z,54.60
2019-01-24T15:35:57.110Z,54.60
2019-01-24T15:38:25.760Z,54.60
2019-01-24T15:40:54.420Z,54.50
2019-01-24T15:43:23.076Z,54.90
2019-01-24T15:45:51.741Z,55.30
2019-01-24T15:48:20.392Z,55.60
2019-01-24T15:50:49.099Z,76.90
2019-01-24T15:55:46.436Z,55.00
2019-01-24T15:58:15.202Z,55.80
2019-01-24T16:00:43.866Z,56.10
2019-01-24T16:03:12.790Z,57.00
2019-01-24T16:05:41.444Z,57.60
2019-01-24T16:08:10.113Z,57.90
2019-01-24T16:10:38.816Z,57.60
2019-01-24T16:15:36.770Z,57.80
2019-01-24T16:18:08.057Z,58.40
2019-01-24T16:20:36.712Z,58.60
2019-01-24T16:23:05.714Z,58.90
2019-01-24T16:25:34.401Z,58.80
2019-01-24T16:28:03.094Z,58.80
2019-01-24T16:30:32.587Z,58.60
2019-01-24T16:33:01.519Z,58.20
2019-01-24T16:37:58.600Z,58.20
2019-01-24T16:40:27.743Z,58.70
2019-01-24T16:42:56.418Z,59.10
2019-01-24T16:45:26.720Z,59.40
2019-01-24T16:47:55.629Z,60.00
2019-01-24T16:50:24.757Z,61.30
2019-01-24T16:52:53.680Z,61.10
2019-01-24T16:55:22.342Z,60.90
2019-01-24T17:01:16.235Z,61.40
2019-01-24T17:03:44.990Z,63.20
2019-01-24T17:08:42.169Z,64.70
2019-01-24T17:11:10.807Z,66.30
2019-01-24T17:13:39.472Z,66.90
2019-01-24T17:16:08.125Z,67.40
2019-01-24T17:18:36.779Z,68.10
2019-01-24T17:21:05.569Z,69.40
2019-01-24T17:23:34.257Z,70.90
2019-01-24T17:26:03.922Z,72.10
2019-01-24T17:31:00.941Z,72.60
2019-01-24T17:33:29.596Z,74.20
2019-01-24T17:35:58.304Z,75.30
2019-01-24T17:38:26.972Z,75.30
2019-01-24T17:40:55.638Z,76.00
2019-01-24T17:43:24.373Z,76.80
2019-01-24T17:45:53.273Z,77.70
2019-01-24T17:50:50.364Z,78.50
2019-01-24T17:53:19.030Z,79.60
2019-01-24T17:55:47.687Z,80.10
2019-01-24T17:58:16.343Z,80.50
2019-01-24T18:00:52.837Z,81.20
2019-01-24T18:03:21.580Z,81.60
2019-01-24T18:05:50.590Z,82.10
2019-01-24T18:08:19.241Z,81.20
2019-01-24T18:10:47.890Z,81.20
2019-01-24T18:15:44.869Z,81.90
2019-01-24T18:18:14.688Z,82.70
2019-01-24T18:20:43.896Z,82.70
2019-01-24T18:23:12.713Z,83.20
2019-01-24T18:25:41.453Z,83.10
2019-01-24T18:28:11.690Z,82.90
2019-01-24T18:30:40.530Z,83.10
2019-01-24T18:35:37.626Z,82.40
2019-01-24T18:38:07.080Z,83.50
2019-01-24T18:40:35.796Z,83.40
2019-01-24T18:43:07.732Z,83.60
2019-01-24T18:45:43.036Z,83.60
2019-01-24T18:48:11.707Z,82.90
2019-01-24T18:50:40.476Z,81.90
2019-01-24T18:55:38.444Z,82.20
2019-01-24T19:00:41.452Z,82.00
2019-01-24T19:03:10.408Z,81.80
2019-01-24T19:05:40.435Z,80.90
2019-01-24T19:08:10.659Z,81.10
2019-01-24T19:10:39.556Z,81.50
2019-01-24T19:13:08.928Z,82.40
2019-01-24T19:15:38.849Z,82.60
2019-01-24T19:18:10.499Z,82.20
2019-01-24T19:23:07.445Z,82.30
2019-01-24T19:25:36.189Z,83.30
2019-01-24T19:28:06.269Z,83.00
2019-01-24T19:30:35.130Z,82.50
2019-01-24T19:33:03.957Z,82.40
2019-01-24T19:35:32.800Z,82.60
2019-01-24T19:38:01.829Z,82.60
2019-01-24T19:40:30.480Z,95.00
2019-01-24T19:45:27.851Z,82.10
2019-01-24T19:47:56.517Z,82.30
2019-01-24T19:50:27.621Z,82.20
2019-01-24T19:52:56.364Z,82.30
2019-01-24T19:55:25.058Z,82.20
2019-01-24T19:57:54.229Z,81.20
2019-01-24T20:00:24.677Z,82.00
2019-01-24T20:02:53.327Z,81.40
2019-01-24T20:07:50.390Z,80.80
2019-01-24T20:10:20.803Z,81.30
2019-01-24T20:12:49.458Z,81.40
2019-01-24T20:15:20.222Z,81.40
2019-01-24T20:17:49.612Z,81.40
2019-01-24T20:20:18.910Z,81.10
2019-01-24T20:22:47.573Z,80.50
2019-01-24T20:25:17.823Z,79.50
2019-01-24T20:30:17.451Z,79.40
2019-01-24T20:32:46.207Z,80.60
2019-01-24T20:35:23.214Z,80.70
2019-01-24T20:37:51.910Z,79.40
2019-01-24T20:40:21.258Z,80.30
2019-01-24T20:42:50.311Z,80.40
2019-01-24T20:45:18.978Z,80.60
2019-01-24T20:47:47.630Z,80.20
2019-01-24T20:52:44.591Z,80.30
2019-01-24T20:55:13.299Z,80.90
2019-01-24T20:57:42.032Z,80.90
2019-01-24T21:00:13.972Z,80.50
2019-01-24T21:02:42.732Z,80.80
2019-01-24T21:05:11.988Z,80.80
2019-01-24T21:07:40.905Z,80.60
2019-01-24T21:10:12.404Z,80.40
2019-01-24T21:15:10.687Z,79.90
2019-01-24T21:17:39.350Z,79.90
2019-01-24T21:20:10.489Z,79.30
2019-01-24T21:22:39.148Z,79.50
2019-01-24T21:25:11.706Z,79.60
2019-01-24T21:27:39.917Z,79.60
2019-01-24T21:30:12.314Z,79.30
2019-01-24T21:32:40.965Z,78.90
2019-01-24T21:35:09.694Z,77.80
2019-01-24T21:40:07.879Z,78.00
2019-01-24T21:42:36.775Z,79.20
2019-01-24T21:45:06.297Z,78.80
2019-01-24T21:47:34.949Z,79.10
2019-01-24T21:50:03.866Z,79.30
2019-01-24T21:52:32.557Z,79.10
2019-01-24T21:55:01.459Z,79.30
2019-01-24T21:57:30.152Z,78.60
2019-01-24T22:02:27.080Z,78.70
2019-01-24T22:04:55.813Z,79.40
2019-01-24T22:07:24.451Z,79.50
2019-01-24T22:09:53.126Z,78.90
2019-01-24T22:12:21.787Z,78.60
2019-01-24T22:14:50.452Z,78.80
2019-01-24T22:17:19.132Z,78.90
2019-01-24T22:22:16.224Z,78.90
2019-01-24T22:24:44.882Z,80.20
2019-01-24T22:27:13.616Z,79.30
2019-01-24T22:29:42.260Z,80.10
2019-01-24T22:32:10.967Z,79.90
2019-01-24T22:34:39.617Z,79.60
2019-01-24T22:37:08.363Z,79.30
2019-01-24T22:39:37.012Z,78.30
2019-01-24T22:44:34.271Z,77.90
2019-01-24T22:47:02.953Z,78.80
2019-01-24T22:49:31.621Z,79.00
2019-01-24T22:52:00.292Z,78.90
2019-01-24T22:54:29.033Z,78.80
2019-01-24T22:56:57.729Z,79.60
2019-01-24T22:59:26.456Z,79.20
2019-01-24T23:04:26.555Z,79.10
2019-01-24T23:06:55.239Z,80.00
2019-01-24T23:09:23.896Z,79.20
2019-01-24T23:11:52.957Z,79.40
2019-01-24T23:14:21.949Z,79.50
2019-01-24T23:16:50.669Z,79.30
2019-01-24T23:19:19.390Z,79.50
2019-01-24T23:21:49.545Z,78.50
2019-01-24T23:26:46.663Z,78.50
2019-01-24T23:29:15.340Z,79.20
2019-01-24T23:31:44.044Z,79.00
2019-01-24T23:34:12.713Z,79.40
2019-01-24T23:36:42.489Z,79.10
2019-01-24T23:39:11.281Z,78.60
2019-01-24T23:41:39.929Z,78.60
2019-01-24T23:44:11.119Z,77.20
2019-01-24T23:49:08.096Z,77.10
2019-01-24T23:51:36.823Z,77.70
2019-01-24T23:54:05.661Z,78.20
2019-01-24T23:56:34.370Z,77.00
2019-01-24T23:59:03.057Z,77.10
